sensor_id;sensor_type;location;lat;lon;timestamp;P1;durP1;ratioP1;P2;durP2;ratioP2
17345;SDS011;8790;53.590;10.002;2024-01-16T00:02:01;4.87;;;2.23;;
17345;SDS011;8790;53.590;10.002;2024-01-16T00:04:33;3.07;;;2.10;;
17345;SDS011;8790;53.590;10.002;2024-01-16T00:07:04;3.00;;;2.30;;
17345;SDS011;8790;53.590;10.002;2024-01-16T00:09:36;4.27;;;2.67;;
17345;SDS011;8790;53.590;10.002;2024-01-16T00:12:08;2.90;;;2.33;;
17345;SDS011;8790;53.590;10.002;2024-01-16T00:14:41;6.47;;;3.20;;
17345;SDS011;8790;53.590;10.002;2024-01-16T00:17:12;4.50;;;2.77;;
17345;SDS011;8790;53.590;10.002;2024-01-16T00:19:44;3.87;;;3.03;;
17345;SDS011;8790;53.590;10.002;2024-01-16T00:22:15;5.10;;;3.13;;
17345;SDS011;8790;53.590;10.002;2024-01-16T00:24:47;4.40;;;3.40;;
17345;SDS011;8790;53.590;10.002;2024-01-16T00:27:18;5.30;;;3.13;;
17345;SDS011;8790;53.590;10.002;2024-01-16T00:29:51;5.17;;;3.13;;
17345;SDS011;8790;53.590;10.002;2024-01-16T00:32:22;4.60;;;3.43;;
17345;SDS011;8790;53.590;10.002;2024-01-16T00:34:54;4.83;;;3.23;;
17345;SDS011;8790;53.590;10.002;2024-01-16T00:37:25;4.73;;;3.20;;
17345;SDS011;8790;53.590;10.002;2024-01-16T00:39:57;4.73;;;3.20;;
17345;SDS011;8790;53.590;10.002;2024-01-16T00:42:29;4.07;;;3.20;;
17345;SDS011;8790;53.590;10.002;2024-01-16T00:45:01;4.30;;;2.77;;
17345;SDS011;8790;53.590;10.002;2024-01-16T00:47:34;3.30;;;2.93;;
17345;SDS011;8790;53.590;10.002;2024-01-16T00:50:06;4.80;;;3.17;;
17345;SDS011;8790;53.590;10.002;2024-01-16T00:52:39;4.53;;;2.97;;
17345;SDS011;8790;53.590;10.002;2024-01-16T00:55:10;4.47;;;2.90;;
17345;SDS011;8790;53.590;10.002;2024-01-16T00:57:42;4.37;;;2.83;;
17345;SDS011;8790;53.590;10.002;2024-01-16T01:00:15;3.70;;;3.13;;
17345;SDS011;8790;53.590;10.002;2024-01-16T01:02:47;4.17;;;2.80;;
17345;SDS011;8790;53.590;10.002;2024-01-16T01:05:18;4.43;;;3.10;;
17345;SDS011;8790;53.590;10.002;2024-01-16T01:07:50;4.20;;;3.37;;
17345;SDS011;8790;53.590;10.002;2024-01-16T01:10:22;4.33;;;3.07;;
17345;SDS011;8790;53.590;10.002;2024-01-16T01:12:53;6.83;;;3.10;;
17345;SDS011;8790;53.590;10.002;2024-01-16T01:15:26;3.63;;;3.07;;
17345;SDS011;8790;53.590;10.002;2024-01-16T01:17:58;3.33;;;2.80;;
17345;SDS011;8790;53.590;10.002;2024-01-16T01:20:29;3.53;;;3.07;;
17345;SDS011;8790;53.590;10.002;2024-01-16T01:23:00;5.53;;;3.00;;
17345;SDS011;8790;53.590;10.002;2024-01-16T01:25:32;3.60;;;3.13;;
17345;SDS011;8790;53.590;10.002;2024-01-16T01:28:03;6.83;;;3.27;;
17345;SDS011;8790;53.590;10.002;2024-01-16T01:30:36;5.27;;;3.20;;
17345;SDS011;8790;53.590;10.002;2024-01-16T01:33:08;3.73;;;3.00;;
17345;SDS011;8790;53.590;10.002;2024-01-16T01:35:39;5.23;;;3.10;;
17345;SDS011;8790;53.590;10.002;2024-01-16T01:38:11;5.17;;;3.23;;
17345;SDS011;8790;53.590;10.002;2024-01-16T01:40:42;4.53;;;3.13;;
17345;SDS011;8790;53.590;10.002;2024-01-16T01:43:17;6.53;;;3.70;;
17345;SDS011;8790;53.590;10.002;2024-01-16T01:45:56;6.23;;;3.43;;
17345;SDS011;8790;53.590;10.002;2024-01-16T01:48:36;4.57;;;3.37;;
17345;SDS011;8790;53.590;10.002;2024-01-16T01:51:09;4.23;;;3.33;;
17345;SDS011;8790;53.590;10.002;2024-01-16T01:53:41;5.00;;;3.43;;
17345;SDS011;8790;53.590;10.002;2024-01-16T01:56:14;6.20;;;3.50;;
17345;SDS011;8790;53.590;10.002;2024-01-16T01:58:49;4.60;;;3.40;;
17345;SDS011;8790;53.590;10.002;2024-01-16T02:01:25;5.47;;;3.37;;
17345;SDS011;8790;53.590;10.002;2024-01-16T02:03:59;4.70;;;3.70;;
17345;SDS011;8790;53.590;10.002;2024-01-16T02:06:32;3.70;;;3.00;;
17345;SDS011;8790;53.590;10.002;2024-01-16T02:09:04;6.23;;;3.80;;
17345;SDS011;8790;53.590;10.002;2024-01-16T02:11:37;5.33;;;3.57;;
17345;SDS011;8790;53.590;10.002;2024-01-16T02:14:08;5.80;;;3.73;;
17345;SDS011;8790;53.590;10.002;2024-01-16T02:16:42;5.03;;;3.73;;
17345;SDS011;8790;53.590;10.002;2024-01-16T02:19:15;5.27;;;3.57;;
17345;SDS011;8790;53.590;10.002;2024-01-16T02:21:47;5.43;;;3.23;;
17345;SDS011;8790;53.590;10.002;2024-01-16T02:24:20;4.70;;;3.53;;
17345;SDS011;8790;53.590;10.002;2024-01-16T02:26:52;6.17;;;3.43;;
17345;SDS011;8790;53.590;10.002;2024-01-16T02:29:24;5.83;;;3.60;;
17345;SDS011;8790;53.590;10.002;2024-01-16T02:31:56;4.80;;;3.70;;
17345;SDS011;8790;53.590;10.002;2024-01-16T02:34:27;7.70;;;3.83;;
17345;SDS011;8790;53.590;10.002;2024-01-16T02:36:59;5.60;;;3.90;;
17345;SDS011;8790;53.590;10.002;2024-01-16T02:39:31;5.40;;;4.10;;
17345;SDS011;8790;53.590;10.002;2024-01-16T02:42:03;9.37;;;4.43;;
17345;SDS011;8790;53.590;10.002;2024-01-16T02:44:35;6.97;;;4.33;;
17345;SDS011;8790;53.590;10.002;2024-01-16T02:47:07;6.00;;;4.33;;
17345;SDS011;8790;53.590;10.002;2024-01-16T02:49:39;6.77;;;4.67;;
17345;SDS011;8790;53.590;10.002;2024-01-16T02:52:11;5.33;;;4.33;;
17345;SDS011;8790;53.590;10.002;2024-01-16T02:54:44;6.97;;;4.73;;
17345;SDS011;8790;53.590;10.002;2024-01-16T02:57:16;7.40;;;4.67;;
17345;SDS011;8790;53.590;10.002;2024-01-16T02:59:47;6.33;;;4.67;;
17345;SDS011;8790;53.590;10.002;2024-01-16T03:02:19;7.47;;;4.80;;
17345;SDS011;8790;53.590;10.002;2024-01-16T03:04:50;9.93;;;5.67;;
17345;SDS011;8790;53.590;10.002;2024-01-16T03:07:22;8.60;;;5.47;;
17345;SDS011;8790;53.590;10.002;2024-01-16T03:09:54;9.20;;;5.97;;
17345;SDS011;8790;53.590;10.002;2024-01-16T03:12:26;9.80;;;6.67;;
17345;SDS011;8790;53.590;10.002;2024-01-16T03:14:57;9.90;;;6.00;;
17345;SDS011;8790;53.590;10.002;2024-01-16T03:17:29;9.50;;;5.97;;
17345;SDS011;8790;53.590;10.002;2024-01-16T03:20:01;7.03;;;5.03;;
17345;SDS011;8790;53.590;10.002;2024-01-16T03:22:33;7.13;;;5.40;;
17345;SDS011;8790;53.590;10.002;2024-01-16T03:25:06;8.13;;;5.70;;
17345;SDS011;8790;53.590;10.002;2024-01-16T03:27:39;8.97;;;5.83;;
17345;SDS011;8790;53.590;10.002;2024-01-16T03:30:10;7.73;;;5.40;;
17345;SDS011;8790;53.590;10.002;2024-01-16T03:32:42;8.17;;;5.27;;
17345;SDS011;8790;53.590;10.002;2024-01-16T03:35:13;6.47;;;4.33;;
17345;SDS011;8790;53.590;10.002;2024-01-16T03:37:45;8.57;;;4.97;;
17345;SDS011;8790;53.590;10.002;2024-01-16T03:40:18;8.33;;;5.17;;
17345;SDS011;8790;53.590;10.002;2024-01-16T03:42:50;10.17;;;5.67;;
17345;SDS011;8790;53.590;10.002;2024-01-16T03:45:21;8.20;;;5.53;;
17345;SDS011;8790;53.590;10.002;2024-01-16T03:47:53;8.77;;;5.40;;
17345;SDS011;8790;53.590;10.002;2024-01-16T03:50:24;8.23;;;5.93;;
17345;SDS011;8790;53.590;10.002;2024-01-16T03:52:56;9.63;;;5.57;;
17345;SDS011;8790;53.590;10.002;2024-01-16T03:55:29;8.57;;;5.80;;
17345;SDS011;8790;53.590;10.002;2024-01-16T03:58:01;7.83;;;5.30;;
17345;SDS011;8790;53.590;10.002;2024-01-16T04:00:32;9.60;;;6.00;;
17345;SDS011;8790;53.590;10.002;2024-01-16T04:03:04;8.80;;;5.43;;
17345;SDS011;8790;53.590;10.002;2024-01-16T04:05:37;10.40;;;6.00;;
17345;SDS011;8790;53.590;10.002;2024-01-16T04:08:09;7.90;;;5.30;;
17345;SDS011;8790;53.590;10.002;2024-01-16T04:10:43;9.17;;;5.97;;
17345;SDS011;8790;53.590;10.002;2024-01-16T04:13:15;9.27;;;5.67;;
17345;SDS011;8790;53.590;10.002;2024-01-16T04:15:46;8.00;;;5.77;;
17345;SDS011;8790;53.590;10.002;2024-01-16T04:18:18;7.60;;;5.50;;
17345;SDS011;8790;53.590;10.002;2024-01-16T04:20:50;11.03;;;5.73;;
17345;SDS011;8790;53.590;10.002;2024-01-16T04:23:21;8.63;;;5.70;;
17345;SDS011;8790;53.590;10.002;2024-01-16T04:25:54;9.57;;;6.03;;
17345;SDS011;8790;53.590;10.002;2024-01-16T04:28:26;8.60;;;5.67;;
17345;SDS011;8790;53.590;10.002;2024-01-16T04:30:57;10.67;;;5.27;;
17345;SDS011;8790;53.590;10.002;2024-01-16T04:33:29;8.37;;;5.77;;
17345;SDS011;8790;53.590;10.002;2024-01-16T04:36:00;9.37;;;6.50;;
17345;SDS011;8790;53.590;10.002;2024-01-16T04:38:32;11.20;;;5.80;;
17345;SDS011;8790;53.590;10.002;2024-01-16T04:41:04;7.20;;;5.10;;
17345;SDS011;8790;53.590;10.002;2024-01-16T04:43:36;7.37;;;5.27;;
17345;SDS011;8790;53.590;10.002;2024-01-16T04:46:07;8.20;;;4.90;;
17345;SDS011;8790;53.590;10.002;2024-01-16T04:48:39;7.57;;;4.87;;
17345;SDS011;8790;53.590;10.002;2024-01-16T04:51:10;7.47;;;4.93;;
17345;SDS011;8790;53.590;10.002;2024-01-16T04:53:42;5.70;;;4.17;;
17345;SDS011;8790;53.590;10.002;2024-01-16T04:56:15;8.03;;;4.67;;
17345;SDS011;8790;53.590;10.002;2024-01-16T04:58:47;7.60;;;4.43;;
17345;SDS011;8790;53.590;10.002;2024-01-16T05:01:18;6.03;;;4.33;;
17345;SDS011;8790;53.590;10.002;2024-01-16T05:03:50;6.37;;;4.00;;
17345;SDS011;8790;53.590;10.002;2024-01-16T05:06:21;6.53;;;4.40;;
17345;SDS011;8790;53.590;10.002;2024-01-16T05:08:53;6.00;;;4.00;;
17345;SDS011;8790;53.590;10.002;2024-01-16T05:11:26;6.37;;;3.90;;
17345;SDS011;8790;53.590;10.002;2024-01-16T05:13:57;7.30;;;3.97;;
17345;SDS011;8790;53.590;10.002;2024-01-16T05:16:29;6.40;;;3.43;;
17345;SDS011;8790;53.590;10.002;2024-01-16T05:19:00;6.30;;;3.43;;
17345;SDS011;8790;53.590;10.002;2024-01-16T05:21:31;6.20;;;3.50;;
17345;SDS011;8790;53.590;10.002;2024-01-16T05:24:03;6.43;;;3.63;;
17345;SDS011;8790;53.590;10.002;2024-01-16T05:26:36;4.33;;;3.07;;
17345;SDS011;8790;53.590;10.002;2024-01-16T05:29:08;5.17;;;2.80;;
17345;SDS011;8790;53.590;10.002;2024-01-16T05:31:40;6.87;;;3.20;;
17345;SDS011;8790;53.590;10.002;2024-01-16T05:34:14;5.43;;;2.97;;
17345;SDS011;8790;53.590;10.002;2024-01-16T05:37:08;3.97;;;2.70;;
17345;SDS011;8790;53.590;10.002;2024-01-16T05:39:41;3.90;;;2.60;;
17345;SDS011;8790;53.590;10.002;2024-01-16T05:42:14;4.03;;;2.83;;
17345;SDS011;8790;53.590;10.002;2024-01-16T05:44:45;3.93;;;2.50;;
17345;SDS011;8790;53.590;10.002;2024-01-16T05:47:17;3.80;;;2.47;;
17345;SDS011;8790;53.590;10.002;2024-01-16T05:49:48;3.53;;;2.20;;
17345;SDS011;8790;53.590;10.002;2024-01-16T05:52:20;2.50;;;1.83;;
17345;SDS011;8790;53.590;10.002;2024-01-16T05:54:51;2.67;;;2.10;;
17345;SDS011;8790;53.590;10.002;2024-01-16T05:57:24;4.60;;;1.80;;
17345;SDS011;8790;53.590;10.002;2024-01-16T05:59:56;2.07;;;1.50;;
17345;SDS011;8790;53.590;10.002;2024-01-16T06:02:27;2.67;;;1.40;;
17345;SDS011;8790;53.590;10.002;2024-01-16T06:04:59;1.90;;;1.47;;
17345;SDS011;8790;53.590;10.002;2024-01-16T06:07:32;3.70;;;1.17;;
17345;SDS011;8790;53.590;10.002;2024-01-16T06:10:04;1.70;;;1.40;;
17345;SDS011;8790;53.590;10.002;2024-01-16T06:12:38;2.60;;;1.57;;
17345;SDS011;8790;53.590;10.002;2024-01-16T06:15:09;3.20;;;1.50;;
17345;SDS011;8790;53.590;10.002;2024-01-16T06:17:42;2.83;;;1.40;;
17345;SDS011;8790;53.590;10.002;2024-01-16T06:20:14;2.97;;;1.50;;
17345;SDS011;8790;53.590;10.002;2024-01-16T06:22:46;3.07;;;1.30;;
17345;SDS011;8790;53.590;10.002;2024-01-16T06:25:17;2.40;;;1.40;;
17345;SDS011;8790;53.590;10.002;2024-01-16T06:27:50;1.63;;;1.37;;
17345;SDS011;8790;53.590;10.002;2024-01-16T06:30:21;3.87;;;1.73;;
17345;SDS011;8790;53.590;10.002;2024-01-16T06:32:53;2.50;;;1.30;;
17345;SDS011;8790;53.590;10.002;2024-01-16T06:35:25;4.27;;;1.63;;
17345;SDS011;8790;53.590;10.002;2024-01-16T06:37:56;3.50;;;1.33;;
17345;SDS011;8790;53.590;10.002;2024-01-16T06:40:28;2.77;;;1.77;;
17345;SDS011;8790;53.590;10.002;2024-01-16T06:43:01;4.60;;;1.80;;
17345;SDS011;8790;53.590;10.002;2024-01-16T06:45:33;3.07;;;1.90;;
17345;SDS011;8790;53.590;10.002;2024-01-16T06:48:05;4.87;;;1.73;;
17345;SDS011;8790;53.590;10.002;2024-01-16T06:50:36;2.87;;;1.50;;
17345;SDS011;8790;53.590;10.002;2024-01-16T06:53:08;4.93;;;1.70;;
17345;SDS011;8790;53.590;10.002;2024-01-16T06:55:39;2.57;;;1.67;;
17345;SDS011;8790;53.590;10.002;2024-01-16T06:58:12;2.53;;;1.83;;
17345;SDS011;8790;53.590;10.002;2024-01-16T07:00:43;2.83;;;1.90;;
17345;SDS011;8790;53.590;10.002;2024-01-16T07:03:16;3.20;;;1.73;;
17345;SDS011;8790;53.590;10.002;2024-01-16T07:05:48;3.87;;;1.90;;
17345;SDS011;8790;53.590;10.002;2024-01-16T07:08:20;4.73;;;1.83;;
17345;SDS011;8790;53.590;10.002;2024-01-16T07:10:51;4.43;;;2.40;;
17345;SDS011;8790;53.590;10.002;2024-01-16T07:13:25;4.77;;;1.97;;
17345;SDS011;8790;53.590;10.002;2024-01-16T07:15:56;2.67;;;1.87;;
17345;SDS011;8790;53.590;10.002;2024-01-16T07:18:28;4.43;;;1.83;;
17345;SDS011;8790;53.590;10.002;2024-01-16T07:20:59;5.20;;;2.10;;
17345;SDS011;8790;53.590;10.002;2024-01-16T07:23:33;3.73;;;2.10;;
17345;SDS011;8790;53.590;10.002;2024-01-16T07:26:04;3.47;;;1.80;;
17345;SDS011;8790;53.590;10.002;2024-01-16T07:28:37;3.73;;;1.90;;
17345;SDS011;8790;53.590;10.002;2024-01-16T07:31:08;3.87;;;2.00;;
17345;SDS011;8790;53.590;10.002;2024-01-16T07:33:41;3.50;;;2.17;;
17345;SDS011;8790;53.590;10.002;2024-01-16T07:36:13;4.20;;;2.03;;
17345;SDS011;8790;53.590;10.002;2024-01-16T07:38:45;3.53;;;2.10;;
17345;SDS011;8790;53.590;10.002;2024-01-16T07:41:16;3.80;;;2.07;;
17345;SDS011;8790;53.590;10.002;2024-01-16T07:43:49;4.83;;;2.27;;
17345;SDS011;8790;53.590;10.002;2024-01-16T07:46:20;3.07;;;2.20;;
17345;SDS011;8790;53.590;10.002;2024-01-16T07:48:52;6.40;;;2.07;;
17345;SDS011;8790;53.590;10.002;2024-01-16T07:51:24;4.07;;;2.20;;
17345;SDS011;8790;53.590;10.002;2024-01-16T07:54:04;5.07;;;2.00;;
17345;SDS011;8790;53.590;10.002;2024-01-16T07:56:36;4.17;;;2.00;;
17345;SDS011;8790;53.590;10.002;2024-01-16T07:59:10;3.77;;;2.17;;
17345;SDS011;8790;53.590;10.002;2024-01-16T08:01:41;2.90;;;2.10;;
17345;SDS011;8790;53.590;10.002;2024-01-16T08:04:13;4.33;;;1.80;;
17345;SDS011;8790;53.590;10.002;2024-01-16T08:06:44;4.27;;;2.37;;
17345;SDS011;8790;53.590;10.002;2024-01-16T08:09:16;5.00;;;2.57;;
17345;SDS011;8790;53.590;10.002;2024-01-16T08:11:47;5.73;;;2.63;;
17345;SDS011;8790;53.590;10.002;2024-01-16T08:14:20;4.27;;;2.60;;
17345;SDS011;8790;53.590;10.002;2024-01-16T08:16:52;4.63;;;2.27;;
17345;SDS011;8790;53.590;10.002;2024-01-16T08:19:23;2.50;;;2.03;;
17345;SDS011;8790;53.590;10.002;2024-01-16T08:21:55;4.10;;;2.50;;
17345;SDS011;8790;53.590;10.002;2024-01-16T08:24:26;4.33;;;2.40;;
17345;SDS011;8790;53.590;10.002;2024-01-16T08:26:58;6.03;;;2.33;;
17345;SDS011;8790;53.590;10.002;2024-01-16T08:29:30;4.50;;;2.70;;
17345;SDS011;8790;53.590;10.002;2024-01-16T08:32:02;5.00;;;2.50;;
17345;SDS011;8790;53.590;10.002;2024-01-16T08:34:34;5.70;;;2.53;;
17345;SDS011;8790;53.590;10.002;2024-01-16T08:37:05;4.53;;;2.50;;
17345;SDS011;8790;53.590;10.002;2024-01-16T08:39:37;4.47;;;2.60;;
17345;SDS011;8790;53.590;10.002;2024-01-16T08:42:08;3.50;;;2.40;;
17345;SDS011;8790;53.590;10.002;2024-01-16T08:44:43;4.13;;;2.60;;
17345;SDS011;8790;53.590;10.002;2024-01-16T08:47:14;5.50;;;2.33;;
17345;SDS011;8790;53.590;10.002;2024-01-16T08:49:46;5.03;;;2.23;;
17345;SDS011;8790;53.590;10.002;2024-01-16T08:52:18;4.97;;;2.37;;
17345;SDS011;8790;53.590;10.002;2024-01-16T08:54:49;14.67;;;7.20;;
17345;SDS011;8790;53.590;10.002;2024-01-16T08:57:21;19.20;;;10.40;;
17345;SDS011;8790;53.590;10.002;2024-01-16T08:59:53;5.87;;;3.17;;
17345;SDS011;8790;53.590;10.002;2024-01-16T09:02:25;6.07;;;2.97;;
17345;SDS011;8790;53.590;10.002;2024-01-16T09:04:59;6.03;;;2.83;;
17345;SDS011;8790;53.590;10.002;2024-01-16T09:07:30;5.97;;;3.07;;
17345;SDS011;8790;53.590;10.002;2024-01-16T09:10:02;6.40;;;3.30;;
17345;SDS011;8790;53.590;10.002;2024-01-16T09:12:33;6.83;;;3.07;;
17345;SDS011;8790;53.590;10.002;2024-01-16T09:15:07;6.80;;;3.20;;
17345;SDS011;8790;53.590;10.002;2024-01-16T09:17:39;8.13;;;3.50;;
17345;SDS011;8790;53.590;10.002;2024-01-16T09:20:11;6.03;;;3.23;;
17345;SDS011;8790;53.590;10.002;2024-01-16T09:22:43;9.70;;;3.60;;
17345;SDS011;8790;53.590;10.002;2024-01-16T09:25:14;8.30;;;3.43;;
17345;SDS011;8790;53.590;10.002;2024-01-16T09:27:47;7.77;;;3.13;;
17345;SDS011;8790;53.590;10.002;2024-01-16T09:30:19;7.10;;;3.20;;
17345;SDS011;8790;53.590;10.002;2024-01-16T09:32:52;9.00;;;3.43;;
17345;SDS011;8790;53.590;10.002;2024-01-16T09:35:24;5.50;;;2.90;;
17345;SDS011;8790;53.590;10.002;2024-01-16T09:37:55;6.70;;;3.03;;
17345;SDS011;8790;53.590;10.002;2024-01-16T09:40:26;4.27;;;2.80;;
17345;SDS011;8790;53.590;10.002;2024-01-16T09:42:58;7.93;;;2.80;;
17345;SDS011;8790;53.590;10.002;2024-01-16T09:45:31;5.33;;;2.50;;
17345;SDS011;8790;53.590;10.002;2024-01-16T09:48:04;6.17;;;2.80;;
17345;SDS011;8790;53.590;10.002;2024-01-16T09:50:37;4.30;;;2.63;;
17345;SDS011;8790;53.590;10.002;2024-01-16T09:53:09;5.27;;;3.23;;
17345;SDS011;8790;53.590;10.002;2024-01-16T09:55:40;4.43;;;2.57;;
17345;SDS011;8790;53.590;10.002;2024-01-16T09:58:12;6.30;;;2.30;;
17345;SDS011;8790;53.590;10.002;2024-01-16T10:00:46;5.13;;;2.37;;
17345;SDS011;8790;53.590;10.002;2024-01-16T10:03:18;4.23;;;2.30;;
17345;SDS011;8790;53.590;10.002;2024-01-16T10:05:50;6.57;;;2.20;;
17345;SDS011;8790;53.590;10.002;2024-01-16T10:08:21;7.20;;;2.07;;
17345;SDS011;8790;53.590;10.002;2024-01-16T10:10:53;3.50;;;1.97;;
17345;SDS011;8790;53.590;10.002;2024-01-16T10:13:25;2.90;;;1.73;;
17345;SDS011;8790;53.590;10.002;2024-01-16T10:15:58;4.67;;;2.20;;
17345;SDS011;8790;53.590;10.002;2024-01-16T10:18:30;3.20;;;1.70;;
17345;SDS011;8790;53.590;10.002;2024-01-16T10:21:02;6.90;;;1.90;;
17345;SDS011;8790;53.590;10.002;2024-01-16T10:23:33;4.17;;;1.87;;
17345;SDS011;8790;53.590;10.002;2024-01-16T10:26:05;5.97;;;1.70;;
17345;SDS011;8790;53.590;10.002;2024-01-16T10:28:38;3.50;;;1.57;;
17345;SDS011;8790;53.590;10.002;2024-01-16T10:31:12;5.77;;;1.57;;
17345;SDS011;8790;53.590;10.002;2024-01-16T10:33:45;4.27;;;1.73;;
17345;SDS011;8790;53.590;10.002;2024-01-16T10:36:16;3.83;;;1.60;;
17345;SDS011;8790;53.590;10.002;2024-01-16T10:38:50;4.73;;;1.50;;
17345;SDS011;8790;53.590;10.002;2024-01-16T10:41:27;4.33;;;1.57;;
17345;SDS011;8790;53.590;10.002;2024-01-16T10:44:03;5.50;;;1.60;;
17345;SDS011;8790;53.590;10.002;2024-01-16T10:46:36;2.90;;;1.50;;
17345;SDS011;8790;53.590;10.002;2024-01-16T10:49:08;4.03;;;1.60;;
17345;SDS011;8790;53.590;10.002;2024-01-16T10:51:40;3.20;;;1.70;;
17345;SDS011;8790;53.590;10.002;2024-01-16T10:54:13;2.97;;;1.37;;
17345;SDS011;8790;53.590;10.002;2024-01-16T10:56:45;4.43;;;2.30;;
17345;SDS011;8790;53.590;10.002;2024-01-16T10:59:18;3.57;;;2.10;;
17345;SDS011;8790;53.590;10.002;2024-01-16T11:01:54;4.17;;;1.70;;
17345;SDS011;8790;53.590;10.002;2024-01-16T11:04:28;4.50;;;1.30;;
17345;SDS011;8790;53.590;10.002;2024-01-16T11:07:00;3.53;;;1.63;;
17345;SDS011;8790;53.590;10.002;2024-01-16T11:09:34;4.50;;;1.73;;
17345;SDS011;8790;53.590;10.002;2024-01-16T11:12:06;3.27;;;1.50;;
17345;SDS011;8790;53.590;10.002;2024-01-16T11:14:41;4.23;;;1.50;;
17345;SDS011;8790;53.590;10.002;2024-01-16T11:17:13;4.97;;;1.50;;
17345;SDS011;8790;53.590;10.002;2024-01-16T11:19:48;7.13;;;2.30;;
17345;SDS011;8790;53.590;10.002;2024-01-16T11:22:20;3.20;;;1.80;;
17345;SDS011;8790;53.590;10.002;2024-01-16T11:25:06;5.73;;;2.23;;
17345;SDS011;8790;53.590;10.002;2024-01-16T11:27:39;5.77;;;2.20;;
17345;SDS011;8790;53.590;10.002;2024-01-16T11:30:11;5.13;;;2.00;;
17345;SDS011;8790;53.590;10.002;2024-01-16T11:32:44;5.53;;;2.30;;
17345;SDS011;8790;53.590;10.002;2024-01-16T11:35:16;5.17;;;2.20;;
17345;SDS011;8790;53.590;10.002;2024-01-16T11:38:06;3.43;;;2.00;;
17345;SDS011;8790;53.590;10.002;2024-01-16T11:40:39;5.87;;;2.20;;
17345;SDS011;8790;53.590;10.002;2024-01-16T11:46:07;5.73;;;2.00;;
17345;SDS011;8790;53.590;10.002;2024-01-16T11:48:40;4.30;;;1.77;;
17345;SDS011;8790;53.590;10.002;2024-01-16T11:51:22;5.50;;;1.80;;
17345;SDS011;8790;53.590;10.002;2024-01-16T11:53:54;11.50;;;5.20;;
17345;SDS011;8790;53.590;10.002;2024-01-16T11:56:36;5.40;;;2.63;;
17345;SDS011;8790;53.590;10.002;2024-01-16T12:02:17;6.27;;;2.10;;
17345;SDS011;8790;53.590;10.002;2024-01-16T12:04:53;8.30;;;3.33;;
17345;SDS011;8790;53.590;10.002;2024-01-16T12:07:26;5.80;;;3.13;;
17345;SDS011;8790;53.590;10.002;2024-01-16T12:09:58;4.63;;;2.83;;
17345;SDS011;8790;53.590;10.002;2024-01-16T12:12:31;4.93;;;3.00;;
17345;SDS011;8790;53.590;10.002;2024-01-16T12:15:04;6.43;;;2.67;;
17345;SDS011;8790;53.590;10.002;2024-01-16T12:17:37;5.37;;;2.50;;
17345;SDS011;8790;53.590;10.002;2024-01-16T12:20:17;4.63;;;2.40;;
17345;SDS011;8790;53.590;10.002;2024-01-16T12:22:53;4.40;;;2.57;;
17345;SDS011;8790;53.590;10.002;2024-01-16T12:25:26;4.83;;;2.60;;
17345;SDS011;8790;53.590;10.002;2024-01-16T12:27:58;3.43;;;2.70;;
17345;SDS011;8790;53.590;10.002;2024-01-16T12:30:31;6.27;;;3.03;;
17345;SDS011;8790;53.590;10.002;2024-01-16T12:33:03;5.47;;;2.60;;
17345;SDS011;8790;53.590;10.002;2024-01-16T12:35:39;6.20;;;2.73;;
17345;SDS011;8790;53.590;10.002;2024-01-16T12:38:12;6.80;;;2.67;;
17345;SDS011;8790;53.590;10.002;2024-01-16T12:40:45;5.00;;;2.10;;
17345;SDS011;8790;53.590;10.002;2024-01-16T12:43:18;7.37;;;3.23;;
17345;SDS011;8790;53.590;10.002;2024-01-16T12:45:54;4.83;;;2.70;;
17345;SDS011;8790;53.590;10.002;2024-01-16T12:48:26;6.27;;;2.20;;
17345;SDS011;8790;53.590;10.002;2024-01-16T12:51:02;5.00;;;1.77;;
17345;SDS011;8790;53.590;10.002;2024-01-16T12:53:36;8.03;;;2.47;;
17345;SDS011;8790;53.590;10.002;2024-01-16T12:56:09;3.90;;;1.90;;
17345;SDS011;8790;53.590;10.002;2024-01-16T12:58:42;4.77;;;1.70;;
17345;SDS011;8790;53.590;10.002;2024-01-16T13:01:23;3.40;;;1.47;;
17345;SDS011;8790;53.590;10.002;2024-01-16T13:03:56;3.07;;;1.50;;
17345;SDS011;8790;53.590;10.002;2024-01-16T13:06:30;9.00;;;5.40;;
17345;SDS011;8790;53.590;10.002;2024-01-16T13:09:06;6.13;;;1.90;;
17345;SDS011;8790;53.590;10.002;2024-01-16T13:11:46;5.43;;;2.20;;
17345;SDS011;8790;53.590;10.002;2024-01-16T13:14:19;2.77;;;1.43;;
17345;SDS011;8790;53.590;10.002;2024-01-16T13:16:52;4.13;;;2.20;;
17345;SDS011;8790;53.590;10.002;2024-01-16T13:19:25;4.93;;;1.90;;
17345;SDS011;8790;53.590;10.002;2024-01-16T13:21:58;9.37;;;1.93;;
17345;SDS011;8790;53.590;10.002;2024-01-16T13:24:29;4.07;;;2.00;;
17345;SDS011;8790;53.590;10.002;2024-01-16T13:27:01;5.67;;;2.07;;
17345;SDS011;8790;53.590;10.002;2024-01-16T13:29:34;5.03;;;1.90;;
17345;SDS011;8790;53.590;10.002;2024-01-16T13:32:09;4.03;;;1.87;;
17345;SDS011;8790;53.590;10.002;2024-01-16T13:34:41;3.93;;;1.67;;
17345;SDS011;8790;53.590;10.002;2024-01-16T13:37:18;5.63;;;1.70;;
17345;SDS011;8790;53.590;10.002;2024-01-16T13:39:51;3.00;;;1.90;;
17345;SDS011;8790;53.590;10.002;2024-01-16T13:42:22;4.13;;;1.73;;
17345;SDS011;8790;53.590;10.002;2024-01-16T13:44:53;3.80;;;1.77;;
17345;SDS011;8790;53.590;10.002;2024-01-16T13:47:25;4.63;;;1.70;;
17345;SDS011;8790;53.590;10.002;2024-01-16T13:49:57;3.80;;;1.90;;
17345;SDS011;8790;53.590;10.002;2024-01-16T13:52:30;2.77;;;1.80;;
17345;SDS011;8790;53.590;10.002;2024-01-16T13:55:01;3.70;;;1.90;;
17345;SDS011;8790;53.590;10.002;2024-01-16T13:57:35;2.60;;;1.80;;
17345;SDS011;8790;53.590;10.002;2024-01-16T14:00:07;4.53;;;2.50;;
17345;SDS011;8790;53.590;10.002;2024-01-16T14:02:44;3.40;;;2.00;;
17345;SDS011;8790;53.590;10.002;2024-01-16T14:05:16;4.63;;;2.70;;
17345;SDS011;8790;53.590;10.002;2024-01-16T14:07:50;5.17;;;2.40;;
17345;SDS011;8790;53.590;10.002;2024-01-16T14:10:22;3.63;;;2.83;;
17345;SDS011;8790;53.590;10.002;2024-01-16T14:12:55;8.80;;;2.70;;
17345;SDS011;8790;53.590;10.002;2024-01-16T14:15:26;4.87;;;2.70;;
17345;SDS011;8790;53.590;10.002;2024-01-16T14:17:58;6.63;;;3.10;;
17345;SDS011;8790;53.590;10.002;2024-01-16T14:20:30;5.57;;;3.10;;
17345;SDS011;8790;53.590;10.002;2024-01-16T14:23:03;6.60;;;2.93;;
17345;SDS011;8790;53.590;10.002;2024-01-16T14:25:34;6.60;;;2.77;;
17345;SDS011;8790;53.590;10.002;2024-01-16T14:28:06;7.00;;;3.87;;
17345;SDS011;8790;53.590;10.002;2024-01-16T14:30:38;7.17;;;3.87;;
17345;SDS011;8790;53.590;10.002;2024-01-16T14:33:10;8.53;;;3.17;;
17345;SDS011;8790;53.590;10.002;2024-01-16T14:35:42;7.23;;;3.50;;
17345;SDS011;8790;53.590;10.002;2024-01-16T14:38:16;5.60;;;3.00;;
17345;SDS011;8790;53.590;10.002;2024-01-16T14:40:47;8.83;;;3.57;;
17345;SDS011;8790;53.590;10.002;2024-01-16T14:43:22;4.40;;;3.37;;
17345;SDS011;8790;53.590;10.002;2024-01-16T14:45:53;6.17;;;3.60;;
17345;SDS011;8790;53.590;10.002;2024-01-16T14:48:28;7.53;;;3.40;;
17345;SDS011;8790;53.590;10.002;2024-01-16T14:51:00;6.00;;;3.80;;
17345;SDS011;8790;53.590;10.002;2024-01-16T14:53:33;6.33;;;3.30;;
17345;SDS011;8790;53.590;10.002;2024-01-16T14:56:04;7.17;;;3.80;;
17345;SDS011;8790;53.590;10.002;2024-01-16T14:58:36;5.67;;;3.30;;
17345;SDS011;8790;53.590;10.002;2024-01-16T15:01:07;5.60;;;3.00;;
17345;SDS011;8790;53.590;10.002;2024-01-16T15:03:40;5.23;;;2.73;;
17345;SDS011;8790;53.590;10.002;2024-01-16T15:06:12;7.40;;;2.80;;
17345;SDS011;8790;53.590;10.002;2024-01-16T15:08:45;5.83;;;3.07;;
17345;SDS011;8790;53.590;10.002;2024-01-16T15:11:18;8.57;;;3.27;;
17345;SDS011;8790;53.590;10.002;2024-01-16T15:13:49;5.50;;;3.07;;
17345;SDS011;8790;53.590;10.002;2024-01-16T15:16:21;6.47;;;3.23;;
17345;SDS011;8790;53.590;10.002;2024-01-16T15:18:52;5.83;;;3.17;;
17345;SDS011;8790;53.590;10.002;2024-01-16T15:21:25;4.17;;;2.90;;
17345;SDS011;8790;53.590;10.002;2024-01-16T15:23:58;6.83;;;3.07;;
17345;SDS011;8790;53.590;10.002;2024-01-16T15:26:29;7.10;;;2.60;;